Time;durP1;ratioP1;P1;durP2;ratioP2;P2;SDS_P1;SDS_P2;PMS_P1;PMS_P2;Temp;Humidity;BMP_temperature;BMP_pressure;BME280_temperature;BME280_humidity;BME280_pressure;Samples;Min_cycle;Max_cycle;Signal;HPM_P1;HPM_P2
2021/05/16 00:02:12;;;;;;;2.42;2.33;;;7.80;99.90;;;;;;5061392;28;20485;-84
2021/05/16 00:04:39;;;;;;;2.92;2.63;;;7.90;99.90;;;;;;5063926;28;20051;-84
2021/05/16 00:07:11;;;;;;;2.38;2.20;;;7.90;99.90;;;;;;5066914;28;20048;-84
2021/05/16 00:09:38;;;;;;;2.75;1.90;;;8.00;99.90;;;;;;5088163;28;20075;-84
2021/05/16 00:12:11;;;;;;;3.17;2.10;;;8.00;99.90;;;;;;5072678;28;20048;-84
2021/05/16 00:14:39;;;;;;;2.08;1.98;;;8.00;99.90;;;;;;5073829;28;20070;-83
2021/05/16 00:17:06;;;;;;;3.78;2.63;;;8.00;99.90;;;;;;5073341;28;20083;-83
2021/05/16 00:19:34;;;;;;;2.30;2.10;;;8.00;99.90;;;;;;5087731;28;20072;-84
2021/05/16 00:22:01;;;;;;;1.92;1.83;;;8.00;99.90;;;;;;5088516;28;20075;-83
2021/05/16 00:24:31;;;;;;;2.00;1.90;;;8.10;99.90;;;;;;5070686;28;20109;-83
2021/05/16 00:26:59;;;;;;;2.83;2.60;;;8.00;99.90;;;;;;5069366;28;20052;-83
2021/05/16 00:29:26;;;;;;;2.63;2.42;;;7.90;99.90;;;;;;5086496;28;20050;-84
2021/05/16 00:31:55;;;;;;;3.40;3.10;;;7.90;99.90;;;;;;5076253;28;20048;-83
2021/05/16 00:34:23;;;;;;;3.20;3.00;;;7.90;99.90;;;;;;5095264;28;20045;-83
2021/05/16 00:36:50;;;;;;;3.10;2.90;;;8.00;99.90;;;;;;5077846;28;20043;-83
2021/05/16 00:39:17;;;;;;;5.40;3.75;;;8.00;99.90;;;;;;5095891;28;20082;-83
2021/05/16 00:41:44;;;;;;;7.82;3.97;;;8.00;99.90;;;;;;5077461;28;20115;-83
2021/05/16 00:44:23;;;;;;;9.85;5.68;;;8.00;99.90;;;;;;5080052;28;20108;-84
2021/05/16 00:47:08;;;;;;;7.35;6.55;;;8.10;99.90;;;;;;5078259;28;20052;-83
2021/05/16 00:49:55;;;;;;;9.07;7.50;;;8.10;99.90;;;;;;5074318;28;20044;-83
2021/05/16 00:52:26;;;;;;;8.65;7.75;;;8.10;99.90;;;;;;5068414;28;20044;-84
2021/05/16 00:54:55;;;;;;;11.48;7.53;;;8.10;99.90;;;;;;5068480;28;20044;-84
2021/05/16 00:57:22;;;;;;;3.33;2.72;;;8.20;99.90;;;;;;5087618;28;20044;-84
2021/05/16 00:59:57;;;;;;;7.15;4.47;;;8.30;99.90;;;;;;5069593;28;20048;-84
2021/05/16 01:02:45;;;;;;;6.47;5.75;;;8.40;99.90;;;;;;5069703;28;20048;-84
2021/05/16 01:05:16;;;;;;;4.53;4.20;;;8.50;99.90;;;;;;5072149;28;20078;-84
2021/05/16 01:08:14;;;;;;;4.45;3.75;;;8.50;99.90;;;;;;5074888;28;20093;-84
2021/05/16 01:10:50;;;;;;;2.05;1.95;;;8.60;99.90;;;;;;5071125;28;20104;-84
2021/05/16 01:13:26;;;;;;;1.30;1.20;;;8.60;99.90;;;;;;5068987;28;20106;-84
2021/05/16 01:15:56;;;;;;;3.78;1.80;;;8.70;99.90;;;;;;5081340;28;20091;-84
2021/05/16 01:18:26;;;;;;;1.40;0.80;;;8.70;99.90;;;;;;5060351;28;20053;-83
2021/05/16 01:20:53;;;;;;;1.35;1.25;;;8.70;99.90;;;;;;5063324;28;20060;-83
2021/05/16 01:23:28;;;;;;;0.75;0.75;;;8.80;99.90;;;;;;5083364;28;20076;-83
2021/05/16 01:26:01;;;;;;;0.43;0.43;;;8.80;99.90;;;;;;5066280;28;20058;-85
2021/05/16 01:28:35;;;;;;;1.40;0.40;;;8.80;99.90;;;;;;5069688;28;20045;-84
2021/05/16 01:31:02;;;;;;;1.02;0.70;;;8.80;99.90;;;;;;5070065;28;20045;-83
2021/05/16 01:33:29;;;;;;;2.92;0.70;;;8.90;99.90;;;;;;5087516;28;20044;-83
2021/05/16 01:36:02;;;;;;;0.63;0.55;;;8.90;99.90;;;;;;5070202;28;20044;-84
2021/05/16 01:38:29;;;;;;;2.33;0.70;;;8.90;99.90;;;;;;5069433;28;20048;-84
2021/05/16 01:40:59;;;;;;;1.75;0.68;;;8.90;99.90;;;;;;5070037;28;20057;-84
2021/05/16 01:43:36;;;;;;;0.90;0.70;;;8.90;99.90;;;;;;5070960;28;20079;-84
2021/05/16 01:46:14;;;;;;;;;;;9.00;99.90;;;;;;5071439;28;20645;-84
2021/05/16 01:49:03;;;;;;;0.93;0.70;;;9.00;99.90;;;;;;5071766;28;20119;-84
2021/05/16 01:51:46;;;;;;;0.57;0.57;;;9.00;99.90;;;;;;5071717;28;20049;-83
2021/05/16 01:54:19;;;;;;;1.95;0.50;;;9.00;99.90;;;;;;5068553;28;20048;-84
2021/05/16 01:56:54;;;;;;;0.90;0.55;;;9.00;99.90;;;;;;5083890;28;20098;-83
2021/05/16 01:59:26;;;;;;;1.90;0.47;;;8.90;99.90;;;;;;5066477;28;20052;-82
2021/05/16 02:01:57;;;;;;;1.60;0.50;;;9.00;99.90;;;;;;5064313;28;20056;-82
2021/05/16 02:04:41;;;;;;;0.40;0.40;;;8.90;99.90;;;;;;5082279;28;20048;-83
2021/05/16 02:07:11;;;;;;;2.42;0.40;;;8.90;99.90;;;;;;5082646;28;20078;-81
2021/05/16 02:09:39;;;;;;;0.77;0.60;;;8.90;99.90;;;;;;5082283;28;20045;-82
2021/05/16 02:12:06;;;;;;;0.80;0.50;;;8.90;99.90;;;;;;5064267;28;20497;-84
2021/05/16 02:14:34;;;;;;;0.73;0.40;;;8.90;99.90;;;;;;5062530;28;20113;-83
2021/05/16 02:17:03;;;;;;;0.63;0.50;;;9.00;99.90;;;;;;5062028;28;578931;-84
2021/05/16 02:19:30;;;;;;;2.83;0.68;;;9.00;99.90;;;;;;5063881;28;20068;-83
2021/05/16 02:21:57;;;;;;;1.67;0.80;;;9.00;99.90;;;;;;5063388;28;20052;-84
2021/05/16 02:24:25;;;;;;;1.83;0.63;;;9.00;99.90;;;;;;5063005;28;20049;-84
2021/05/16 02:26:53;;;;;;;1.58;0.70;;;9.00;99.90;;;;;;5079368;28;20044;-84
2021/05/16 02:29:20;;;;;;;1.48;0.70;;;9.00;99.90;;;;;;5061122;28;20548;-84
2021/05/16 02:31:47;;;;;;;1.65;0.80;;;9.00;99.90;;;;;;5079433;28;20051;-84
2021/05/16 02:34:13;;;;;;;1.55;0.80;;;9.00;99.90;;;;;;5062618;28;20046;-84
2021/05/16 02:36:40;;;;;;;3.25;0.70;;;9.00;99.90;;;;;;5062442;28;20389;-84
2021/05/16 02:39:07;;;;;;;1.70;0.70;;;9.10;99.90;;;;;;5061059;28;20048;-84
2021/05/16 02:41:34;;;;;;;0.85;0.60;;;9.10;99.90;;;;;;5077907;28;20080;-84
2021/05/16 02:44:01;;;;;;;1.75;0.70;;;9.10;99.90;;;;;;5060146;28;20482;-83
2021/05/16 02:46:27;;;;;;;0.82;0.50;;;9.00;99.90;;;;;;5059351;28;20570;-84
2021/05/16 02:48:54;;;;;;;1.92;0.88;;;9.00;99.90;;;;;;5059827;28;20072;-83
2021/05/16 02:51:21;;;;;;;2.63;0.77;;;9.00;99.90;;;;;;5063525;28;20049;-84
2021/05/16 02:53:48;;;;;;;1.65;0.65;;;9.10;99.90;;;;;;5083412;28;20057;-84
2021/05/16 02:56:16;;;;;;;1.77;0.57;;;9.00;99.90;;;;;;5066223;28;20044;-84
2021/05/16 02:58:43;;;;;;;1.70;0.65;;;9.10;99.90;;;;;;5082518;28;20108;-84
2021/05/16 03:01:14;;;;;;;1.17;1.05;;;9.10;99.90;;;;;;5063377;28;20049;-84
2021/05/16 03:03:40;;;;;;;0.82;0.70;;;9.10;99.90;;;;;;5061924;28;20091;-84
2021/05/16 03:06:09;;;;;;;3.03;1.20;;;9.00;99.90;;;;;;5080303;28;20479;-83
2021/05/16 03:08:36;;;;;;;1.52;1.00;;;9.00;99.90;;;;;;5056744;28;20079;-83
2021/05/16 03:11:03;;;;;;;2.78;1.17;;;9.00;99.90;;;;;;5054657;28;20131;-83
2021/05/16 03:13:30;;;;;;;3.00;1.10;;;8.90;99.90;;;;;;5072835;28;20131;-83
2021/05/16 03:15:57;;;;;;;2.15;0.85;;;8.80;99.90;;;;;;5054646;28;20148;-83
2021/05/16 03:18:24;;;;;;;2.05;1.20;;;8.80;99.90;;;;;;5055015;28;20075;-83
2021/05/16 03:20:51;;;;;;;2.33;1.10;;;8.80;99.90;;;;;;5054529;28;20083;-83
2021/05/16 03:23:18;;;;;;;4.38;1.17;;;8.80;99.90;;;;;;5055789;28;20052;-83
2021/05/16 03:25:45;;;;;;;2.40;1.02;;;8.80;99.90;;;;;;5055676;28;20076;-83
2021/05/16 03:28:12;;;;;;;5.28;1.30;;;8.80;99.90;;;;;;5072962;28;20072;-83
2021/05/16 03:30:39;;;;;;;3.72;1.05;;;8.90;99.90;;;;;;5054954;28;20133;-83
2021/05/16 03:33:05;;;;;;;4.43;1.10;;;8.90;99.90;;;;;;5074914;28;20048;-83
2021/05/16 03:35:32;;;;;;;2.92;1.02;;;8.90;99.90;;;;;;5066562;28;20041;-82
2021/05/16 03:37:59;;;;;;;3.13;1.23;;;8.90;99.90;;;;;;5069796;28;20045;-84
2021/05/16 03:40:31;;;;;;;3.92;1.30;;;8.90;99.90;;;;;;5081475;28;20060;-84
2021/05/16 03:42:58;;;;;;;2.22;1.20;;;9.00;99.90;;;;;;5082246;28;20056;-84
2021/05/16 03:45:24;;;;;;;3.80;1.45;;;9.00;99.90;;;;;;5064003;28;20049;-83
2021/05/16 03:47:51;;;;;;;1.40;1.30;;;8.90;99.90;;;;;;5063552;28;20079;-83
2021/05/16 03:50:18;;;;;;;4.07;1.25;;;9.00;99.90;;;;;;5080713;28;20068;-83
2021/05/16 03:52:45;;;;;;;5.70;1.25;;;9.10;99.90;;;;;;5080584;28;20075;-83
2021/05/16 03:55:12;;;;;;;7.60;1.40;;;9.10;99.90;;;;;;5080039;28;20127;-83
2021/05/16 03:57:39;;;;;;;2.95;1.48;;;9.00;99.90;;;;;;5062042;28;20110;-83
2021/05/16 04:00:07;;;;;;;4.25;1.65;;;9.00;99.90;;;;;;5061992;28;20132;-83
2021/05/16 04:02:34;;;;;;;3.17;1.60;;;9.10;99.90;;;;;;5061480;28;20520;-83
2021/05/16 04:05:00;;;;;;;3.33;1.20;;;9.10;99.90;;;;;;5078894;28;20102;-83
2021/05/16 04:07:27;;;;;;;6.25;2.33;;;9.00;99.90;;;;;;5061112;28;20143;-83
2021/05/16 04:09:54;;;;;;;5.35;2.45;;;9.00;99.90;;;;;;5062627;28;20055;-83
2021/05/16 04:12:21;;;;;;;2.65;1.70;;;9.00;99.90;;;;;;5062304;28;20083;-84
2021/05/16 04:14:50;;;;;;;2.65;1.50;;;9.10;99.90;;;;;;5060863;28;20139;-83
2021/05/16 04:17:17;;;;;;;2.85;1.15;;;9.20;99.90;;;;;;5060401;28;20120;-84
2021/05/16 04:19:44;;;;;;;2.85;1.48;;;9.20;99.90;;;;;;5079266;28;20118;-82
2021/05/16 04:22:11;;;;;;;2.85;1.40;;;9.30;99.90;;;;;;5078930;28;20531;-83
2021/05/16 04:24:37;;;;;;;6.10;1.80;;;9.30;99.90;;;;;;5077758;28;20104;-82
2021/05/16 04:27:04;;;;;;;4.38;1.48;;;9.40;99.90;;;;;;5078854;28;20132;-83
2021/05/16 04:29:31;;;;;;;3.33;1.23;;;9.40;99.90;;;;;;5059734;28;20127;-83
2021/05/16 04:31:58;;;;;;;4.40;1.23;;;9.40;99.90;;;;;;5059785;28;20080;-83
2021/05/16 04:34:26;;;;;;;4.88;1.40;;;9.50;99.90;;;;;;5059679;28;20044;-83
2021/05/16 04:36:52;;;;;;;3.13;1.42;;;9.50;99.90;;;;;;5058911;28;20074;-82
2021/05/16 04:39:19;;;;;;;4.10;1.50;;;9.60;99.90;;;;;;5080829;28;20049;-82
2021/05/16 04:41:46;;;;;;;1.63;1.13;;;9.60;99.90;;;;;;5080971;28;20155;-83
2021/05/16 04:44:13;;;;;;;2.75;1.20;;;9.70;99.90;;;;;;5080127;28;20076;-82
2021/05/16 04:46:40;;;;;;;5.93;1.35;;;9.80;99.90;;;;;;5062073;28;20097;-83
2021/05/16 04:49:07;;;;;;;2.08;1.40;;;9.90;99.90;;;;;;5058722;28;20080;-82
2021/05/16 04:51:34;;;;;;;3.58;1.30;;;9.90;99.90;;;;;;5055531;28;20046;-81
2021/05/16 04:54:01;;;;;;;5.53;1.23;;;10.00;99.90;;;;;;5056152;28;20572;-81
2021/05/16 04:56:27;;;;;;;4.28;1.20;;;10.00;99.90;;;;;;5074548;28;20129;-81
2021/05/16 04:58:54;;;;;;;2.92;1.50;;;10.00;99.90;;;;;;5073963;28;20490;-81
2021/05/16 05:01:25;;;;;;;3.80;1.67;;;10.10;99.90;;;;;;5056442;28;20044;-82
2021/05/16 05:03:53;;;;;;;3.28;1.60;;;10.10;99.90;;;;;;5074063;28;20047;-82
2021/05/16 05:06:21;;;;;;;2.45;1.42;;;10.20;99.90;;;;;;5074490;28;20123;-81
2021/05/16 05:08:48;;;;;;;7.53;1.67;;;10.40;99.90;;;;;;5074317;28;20466;-81
2021/05/16 05:11:15;;;;;;;1.30;1.20;;;10.40;99.90;;;;;;5056476;28;20076;-81
2021/05/16 05:13:41;;;;;;;6.07;1.92;;;10.40;99.90;;;;;;5074573;28;20123;-81
2021/05/16 05:16:08;;;;;;;2.65;1.40;;;10.50;99.90;;;;;;5074287;28;20135;-82
2021/05/16 05:18:35;;;;;;;3.92;1.40;;;10.50;99.90;;;;;;5057679;28;20084;-81
2021/05/16 05:21:02;;;;;;;3.78;1.20;;;10.60;99.90;;;;;;5057335;28;20131;-82
2021/05/16 05:23:29;;;;;;;2.15;0.73;;;10.50;99.90;;;;;;5075130;28;20052;-82
2021/05/16 05:25:57;;;;;;;5.13;1.63;;;10.50;99.90;;;;;;5057869;28;20092;-82
2021/05/16 05:28:24;;;;;;;1.15;0.85;;;10.70;99.90;;;;;;5076091;28;20086;-82
2021/05/16 05:30:51;;;;;;;2.15;1.02;;;10.80;99.90;;;;;;5057412;28;20045;-81
2021/05/16 05:33:19;;;;;;;4.70;1.42;;;10.90;99.90;;;;;;5057081;28;20079;-81
2021/05/16 05:35:46;;;;;;;6.80;1.23;;;10.80;99.90;;;;;;5074262;28;20072;-81
2021/05/16 05:38:13;;;;;;;4.32;1.10;;;10.70;99.90;;;;;;5057499;28;20079;-81
2021/05/16 05:40:40;;;;;;;3.83;1.20;;;10.70;99.90;;;;;;5056417;28;20479;-80
2021/05/16 05:43:07;;;;;;;2.58;0.98;;;11.80;99.90;;;;;;5074359;28;20466;-81
2021/05/16 05:45:33;;;;;;;4.05;0.80;;;13.50;99.90;;;;;;5056212;28;20087;-81
2021/05/16 05:48:01;;;;;;;2.47;0.98;;;14.70;99.90;;;;;;5056110;28;20076;-81
2021/05/16 05:50:27;;;;;;;3.38;1.20;;;15.70;99.90;;;;;;5055852;28;20055;-80
2021/05/16 05:52:54;;;;;;;4.45;0.98;;;16.50;99.90;;;;;;5055788;28;20041;-79
2021/05/16 05:55:22;;;;;;;3.22;0.70;;;17.40;99.90;;;;;;5055792;28;20073;-79
2021/05/16 05:57:48;;;;;;;3.42;1.10;;;17.60;99.90;;;;;;5073841;28;20131;-80
2021/05/16 06:00:15;;;;;;;3.28;1.30;;;17.80;99.90;;;;;;5077870;28;20083;-80
2021/05/16 06:02:42;;;;;;;6.25;1.30;;;17.40;99.90;;;;;;5059331;28;20106;-81
2021/05/16 06:05:09;;;;;;;2.22;0.80;;;16.20;99.90;;;;;;5075754;28;20049;-80
2021/05/16 06:07:36;;;;;;;2.83;1.00;;;15.30;99.90;;;;;;5075819;28;20485;-79
2021/05/16 06:10:05;;;;;;;2.50;1.00;;;15.00;99.90;;;;;;5075135;28;20087;-80
2021/05/16 06:12:32;;;;;;;5.80;1.10;;;14.80;99.90;;;;;;5075449;28;20100;-80
2021/05/16 06:15:01;;;;;;;3.55;1.15;;;14.60;99.90;;;;;;5074766;28;20053;-80
2021/05/16 06:17:28;;;;;;;2.80;1.20;;;14.00;99.90;;;;;;5074931;28;20254;-80
2021/05/16 06:19:55;;;;;;;3.33;1.02;;;13.70;99.90;;;;;;5075719;28;20120;-79
2021/05/16 06:22:21;;;;;;;2.78;1.20;;;13.30;99.90;;;;;;5057530;28;20097;-80
2021/05/16 06:24:48;;;;;;;4.03;1.40;;;12.90;99.90;;;;;;5075651;28;20135;-80
2021/05/16 06:27:15;;;;;;;3.42;0.90;;;12.70;99.90;;;;;;5077876;28;20059;-80
2021/05/16 06:29:42;;;;;;;7.30;1.58;;;12.60;99.90;;;;;;5078289;28;20044;-80
2021/05/16 06:32:10;;;;;;;6.68;1.40;;;12.80;99.90;;;;;;5078530;28;20491;-80
2021/05/16 06:34:37;;;;;;;2.15;0.90;;;13.30;99.90;;;;;;5077674;28;20048;-81
2021/05/16 06:37:04;;;;;;;3.75;1.10;;;13.90;99.90;;;;;;5058973;28;20056;-80
2021/05/16 06:39:31;;;;;;;3.50;0.98;;;13.60;99.90;;;;;;5059381;28;20091;-81
2021/05/16 06:41:58;;;;;;;4.72;1.30;;;13.30;99.90;;;;;;5076461;28;20099;-79
2021/05/16 06:44:26;;;;;;;5.88;1.52;;;13.00;99.90;;;;;;5076349;28;20125;-79
2021/05/16 06:46:53;;;;;;;5.57;1.52;;;12.90;99.90;;;;;;5058234;28;20091;-80
2021/05/16 06:49:20;;;;;;;3.72;1.10;;;13.10;99.90;;;;;;5076214;28;20084;-79
2021/05/16 06:51:47;;;;;;;4.78;1.25;;;13.40;99.90;;;;;;5074314;28;20079;-80
2021/05/16 06:54:14;;;;;;;4.75;1.25;;;13.40;99.90;;;;;;5057670;28;20048;-79
2021/05/16 06:56:41;;;;;;;8.52;1.42;;;13.60;99.90;;;;;;5060679;28;20045;-79
2021/05/16 06:59:08;;;;;;;9.40;1.45;;;13.80;99.90;;;;;;5076229;28;20045;-81
2021/05/16 07:01:34;;;;;;;8.93;1.65;;;14.10;99.90;;;;;;5057890;28;20488;-79
2021/05/16 07:04:02;;;;;;;3.35;1.45;;;14.10;99.90;;;;;;5076649;28;20496;-80
2021/05/16 07:06:29;;;;;;;8.38;1.52;;;14.00;99.90;;;;;;5075808;28;20044;-79
2021/05/16 07:08:55;;;;;;;8.20;1.80;;;14.20;99.90;;;;;;5076437;28;20044;-80
2021/05/16 07:11:22;;;;;;;4.03;1.33;;;14.60;99.90;;;;;;5057858;28;20416;-80
2021/05/16 07:13:49;;;;;;;6.40;1.00;;;14.60;99.90;;;;;;5076371;28;20508;-80
2021/05/16 07:16:16;;;;;;;7.20;1.52;;;14.30;99.90;;;;;;5060274;28;20052;-79
2021/05/16 07:18:44;;;;;;;8.32;1.70;;;14.20;99.90;;;;;;5079395;28;20473;-80
2021/05/16 07:21:12;;;;;;;5.13;1.20;;;14.10;99.90;;;;;;5079234;28;20507;-80
2021/05/16 07:23:39;;;;;;;3.75;1.50;;;14.00;99.90;;;;;;5061641;28;20052;-79
2021/05/16 07:26:05;;;;;;;5.03;1.40;;;14.10;99.90;;;;;;5061970;28;20536;-79
2021/05/16 07:28:32;;;;;;;5.20;1.55;;;14.00;99.90;;;;;;5079288;28;20084;-79
2021/05/16 07:30:59;;;;;;;7.57;1.63;;;14.00;99.90;;;;;;5060758;28;20127;-81
2021/05/16 07:33:26;;;;;;;3.38;1.50;;;15.30;99.90;;;;;;5078747;28;20045;-80
2021/05/16 07:35:53;;;;;;;4.95;1.05;;;15.40;99.90;;;;;;5078751;28;20641;-80
2021/05/16 07:38:20;;;;;;;2.85;1.23;;;15.40;99.90;;;;;;5060893;28;20574;-80
2021/05/16 07:40:47;;;;;;;7.55;1.80;;;15.50;99.90;;;;;;5077962;28;20151;-79
2021/05/16 07:43:14;;;;;;;6.68;1.23;;;15.60;99.90;;;;;;5060539;28;20509;-80
2021/05/16 07:45:41;;;;;;;8.90;1.70;;;16.30;99.90;;;;;;5078281;28;20048;-79
2021/05/16 07:48:08;;;;;;;5.72;1.20;;;18.00;99.90;;;;;;5078656;28;20059;-79
2021/05/16 07:50:35;;;;;;;7.10;1.27;;;17.70;99.90;;;;;;5078133;28;20041;-80
2021/05/16 07:53:04;;;;;;;4.28;1.50;;;17.20;99.90;;;;;;5078326;28;20408;-80
2021/05/16 07:55:31;;;;;;;5.93;1.48;;;18.00;99.90;;;;;;5077625;28;20463;-79
2021/05/16 07:57:57;;;;;;;5.38;1.63;;;17.40;99.90;;;;;;5077723;28;20068;-80
2021/05/16 08:00:24;;;;;;;3.97;1.30;;;16.60;99.90;;;;;;5079079;28;20052;-80
2021/05/16 08:02:51;;;;;;;4.38;1.58;;;16.40;99.90;;;;;;5062670;28;20060;-79
2021/05/16 08:05:17;;;;;;;6.05;1.65;;;15.70;99.90;;;;;;5082128;28;20531;-79
2021/05/16 08:07:44;;;;;;;4.53;1.52;;;14.40;99.90;;;;;;5084120;28;20053;-79
2021/05/16 08:10:11;;;;;;;6.45;1.33;;;13.80;99.90;;;;;;5082739;28;20079;-79
2021/05/16 08:12:38;;;;;;;4.47;1.13;;;13.70;99.90;;;;;;5064733;28;20041;-80
2021/05/16 08:15:07;;;;;;;3.55;0.93;;;13.60;99.90;;;;;;5081941;28;20412;-80
2021/05/16 08:17:34;;;;;;;6.18;1.02;;;14.00;99.90;;;;;;5081959;28;20106;-80
2021/05/16 08:20:04;;;;;;;6.35;1.58;;;15.80;99.90;;;;;;5083313;28;20131;-81
2021/05/16 08:22:31;;;;;;;3.42;1.38;;;15.90;99.90;;;;;;5062344;28;20080;-80
2021/05/16 08:24:58;;;;;;;3.55;1.15;;;15.60;99.90;;;;;;5062936;28;20075;-79
2021/05/16 08:27:25;;;;;;;2.05;1.30;;;14.90;99.90;;;;;;5073842;28;20555;-80
2021/05/16 08:29:52;;;;;;;4.88;1.40;;;14.40;99.90;;;;;;5081877;28;20136;-80
2021/05/16 08:32:18;;;;;;;5.13;1.50;;;13.90;99.90;;;;;;5089529;28;20072;-81
2021/05/16 08:34:48;;;;;;;3.67;1.17;;;14.20;99.90;;;;;;5100011;28;20066;-80
2021/05/16 08:37:15;;;;;;;2.55;0.82;;;14.50;99.90;;;;;;5081176;28;20135;-81
2021/05/16 08:39:42;;;;;;;2.10;0.52;;;16.90;99.90;;;;;;5079010;28;20483;-81
2021/05/16 08:42:09;;;;;;;2.00;0.88;;;19.40;99.90;;;;;;5081662;28;20544;-81
2021/05/16 08:44:37;;;;;;;1.92;0.70;;;20.30;99.90;;;;;;5098189;28;20051;-79
2021/05/16 08:47:06;;;;;;;6.20;1.00;;;20.50;99.90;;;;;;5096478;28;20040;-80
2021/05/16 08:49:33;;;;;;;1.58;0.82;;;19.70;99.90;;;;;;5079004;28;20047;-79
2021/05/16 08:52:00;;;;;;;1.70;0.80;;;19.30;99.90;;;;;;5080884;28;20051;-80
2021/05/16 08:54:28;;;;;;;8.10;1.20;;;19.30;99.90;;;;;;5080270;28;20148;-81
2021/05/16 08:56:56;;;;;;;2.67;0.88;;;18.20;99.90;;;;;;5078534;28;20162;-80
2021/05/16 08:59:24;;;;;;;2.45;0.80;;;17.30;99.90;;;;;;5096285;28;20074;-80
2021/05/16 09:01:58;;;;;;;1.98;0.65;;;18.40;99.90;;;;;;5093728;28;20045;-80
2021/05/16 09:04:35;;;;;;;2.05;0.77;;;19.40;99.90;;;;;;5083006;28;20526;-81
2021/05/16 09:07:04;;;;;;;1.83;0.90;;;19.00;99.90;;;;;;5076745;28;20104;-80
2021/05/16 09:09:44;;;;;;;3.42;0.80;;;18.30;99.90;;;;;;5059632;28;20078;-80
2021/05/16 09:12:14;;;;;;;3.22;0.80;;;17.20;99.90;;;;;;5058999;28;20048;-80
2021/05/16 09:14:42;;;;;;;2.35;0.75;;;16.40;99.90;;;;;;5076052;28;20072;-81
2021/05/16 09:17:33;;;;;;;3.55;1.13;;;16.10;99.90;;;;;;5090704;28;20083;-79
2021/05/16 09:20:07;;;;;;;13.77;3.13;;;15.40;99.90;;;;;;5093892;28;20449;-79
2021/05/16 09:22:38;;;;;;;1.23;0.68;;;16.60;99.90;;;;;;5077214;28;20094;-80
2021/05/16 09:25:16;;;;;;;1.77;0.82;;;19.60;99.90;;;;;;5096785;28;20044;-79
2021/05/16 09:27:51;;;;;;;1.48;0.60;;;22.20;99.90;;;;;;5095486;28;20193;-79
2021/05/16 09:30:18;;;;;;;1.25;0.70;;;23.80;94.40;;;;;;5094969;28;20091;-78
2021/05/16 09:32:55;;;;;;;4.65;0.60;;;24.20;86.90;;;;;;5092576;28;20044;-79
2021/05/16 09:35:34;;;;;;;2.25;0.20;;;24.10;77.70;;;;;;5095855;28;20075;-80
2021/05/16 09:38:04;;;;;;;0.90;0.30;;;22.10;84.60;;;;;;5095258;28;20544;-80
2021/05/16 09:40:37;;;;;;;1.30;0.30;;;20.70;88.20;;;;;;5096313;28;20489;-81
2021/05/16 09:43:11;;;;;;;2.25;0.40;;;19.40;94.40;;;;;;5097137;28;20090;-82
2021/05/16 09:45:43;;;;;;;0.68;0.30;;;18.90;96.10;;;;;;5077994;28;20539;-79
2021/05/16 09:48:42;;;;;;;1.50;0.20;;;18.00;99.70;;;;;;5096629;28;20048;-81
2021/05/16 09:51:19;;;;;;;1.20;0.30;;;17.50;99.90;;;;;;5062901;28;20044;-80
2021/05/16 09:53:55;;;;;;;3.17;0.40;;;17.30;99.90;;;;;;5078246;28;20082;-82
2021/05/16 09:56:23;;;;;;;1.90;0.38;;;17.50;99.90;;;;;;5096531;28;20500;-80
2021/05/16 09:58:56;;;;;;;2.97;0.50;;;17.30;99.90;;;;;;5095766;28;20052;-80
2021/05/16 10:01:24;;;;;;;1.00;0.30;;;16.60;99.90;;;;;;5096694;28;20079;-80
2021/05/16 10:03:51;;;;;;;2.70;0.60;;;16.00;99.90;;;;;;5079535;28;20130;-82
2021/05/16 10:06:19;;;;;;;3.67;0.40;;;15.60;99.90;;;;;;5082173;28;20087;-81
2021/05/16 10:08:50;;;;;;;1.30;0.40;;;15.60;99.90;;;;;;5099210;28;20483;-80
2021/05/16 10:11:19;;;;;;;2.30;0.40;;;16.00;99.90;;;;;;5099324;28;20097;-80
2021/05/16 10:14:09;;;;;;;1.70;0.40;;;16.40;99.90;;;;;;5097599;28;20086;-81
2021/05/16 10:16:45;;;;;;;1.08;0.22;;;16.30;99.90;;;;;;5097746;28;20090;-81
2021/05/16 10:19:22;;;;;;;1.88;0.40;;;16.20;99.90;;;;;;5098594;28;20505;-81
2021/05/16 10:22:18;;;;;;;0.40;0.30;;;15.90;99.90;;;;;;5079197;28;20088;-79
2021/05/16 10:24:50;;;;;;;0.50;0.32;;;15.90;99.90;;;;;;5077949;28;20134;-80
2021/05/16 10:27:24;;;;;;;2.22;0.28;;;16.30;99.90;;;;;;5078068;28;20083;-78
2021/05/16 10:30:05;;;;;;;2.40;0.40;;;16.80;99.90;;;;;;5098659;28;20048;-81
2021/05/16 10:32:37;;;;;;;2.42;0.45;;;16.90;99.90;;;;;;5098562;28;20131;-80
2021/05/16 10:35:09;;;;;;;1.77;0.40;;;16.60;99.90;;;;;;5078647;28;20497;-80
2021/05/16 10:37:47;;;;;;;0.88;0.32;;;16.20;99.90;;;;;;5078829;28;20113;-80
2021/05/16 10:40:20;;;;;;;1.05;0.38;;;15.90;99.90;;;;;;5079176;28;20044;-79
2021/05/16 10:42:47;;;;;;;0.57;0.25;;;15.70;99.90;;;;;;5096799;28;20075;-80
2021/05/16 10:45:21;;;;;;;0.70;0.50;;;15.60;99.90;;;;;;5078691;28;20040;-81
2021/05/16 10:47:51;;;;;;;0.20;0.20;;;15.90;99.90;;;;;;5098064;28;20101;-80
2021/05/16 10:50:24;;;;;;;1.55;0.30;;;16.50;99.90;;;;;;5080552;28;20062;-81
2021/05/16 10:53:05;;;;;;;1.03;0.40;;;18.90;99.90;;;;;;5083035;28;20136;-81
2021/05/16 10:55:43;;;;;;;0.28;0.20;;;20.90;99.90;;;;;;5100774;28;20309;-81
2021/05/16 10:58:32;;;;;;;0.30;0.10;;;22.40;96.90;;;;;;5101458;28;20055;-81
2021/05/16 11:01:16;;;;;;;0.10;0.10;;;24.10;84.40;;;;;;5082970;28;20044;-81
2021/05/16 11:03:57;;;;;;;0.80;0.30;;;24.10;81.00;;;;;;5081557;28;20071;-81
2021/05/16 11:06:46;;;;;;;0.10;0.10;;;23.50;77.70;;;;;;5100560;28;20048;-82
2021/05/16 11:09:14;;;;;;;0.63;0.35;;;23.10;77.40;;;;;;5099515;28;20066;-80
2021/05/16 11:11:52;;;;;;;0.43;0.10;;;22.30;81.10;;;;;;5100108;28;20082;-81
2021/05/16 11:14:33;;;;;;;0.38;0.10;;;21.80;82.20;;;;;;5099774;28;20492;-81
2021/05/16 11:17:06;;;;;;;0.57;0.20;;;20.90;86.90;;;;;;5081611;28;20424;-80
2021/05/16 11:19:36;;;;;;;0.20;0.10;;;20.90;89.80;;;;;;5098609;28;20622;-80
2021/05/16 11:22:14;;;;;;;0.70;0.00;;;20.60;90.60;;;;;;5099128;28;20574;-81
2021/05/16 11:24:47;;;;;;;4.85;0.50;;;20.90;89.80;;;;;;5098929;28;20139;-80
2021/05/16 11:27:14;;;;;;;0.40;0.10;;;19.90;90.60;;;;;;5080655;28;20501;-80
2021/05/16 11:29:42;;;;;;;0.10;0.10;;;19.70;94.70;;;;;;5098731;28;20474;-82
2021/05/16 11:32:09;;;;;;;0.08;0.08;;;19.80;93.90;;;;;;5080004;28;20131;-80
2021/05/16 11:34:36;;;;;;;0.30;0.00;;;19.60;92.40;;;;;;5098159;28;20420;-80
2021/05/16 11:37:18;;;;;;;0.10;0.05;;;19.10;93.30;;;;;;5098756;28;20481;-81
2021/05/16 11:39:45;;;;;;;1.10;0.28;;;18.80;95.00;;;;;;5098628;28;20412;-80
2021/05/16 11:42:31;;;;;;;0.47;0.00;;;18.70;94.60;;;;;;5080601;28;20052;-81
2021/05/16 11:44:58;;;;;;;0.30;0.10;;;18.40;97.00;;;;;;5097902;28;20139;-80
2021/05/16 11:47:38;;;;;;;1.25;0.22;;;18.30;99.90;;;;;;5098064;28;20584;-81
2021/05/16 11:50:08;;;;;;;0.70;0.63;;;18.00;99.90;;;;;;5079701;28;20097;-79
2021/05/16 11:52:35;;;;;;;0.70;0.22;;;17.60;99.90;;;;;;5079129;28;20119;-81
2021/05/16 11:55:06;;;;;;;0.30;0.20;;;17.10;99.90;;;;;;5084230;28;20044;-81
2021/05/16 11:57:35;;;;;;;0.40;0.10;;;16.50;99.90;;;;;;5084165;28;20484;-80
2021/05/16 12:00:07;;;;;;;5.10;0.20;;;16.10;99.90;;;;;;5082782;28;20463;-80
2021/05/16 12:02:38;;;;;;;1.88;0.20;;;15.90;99.90;;;;;;5095960;28;20047;-79
2021/05/16 12:05:05;;;;;;;1.58;0.10;;;16.30;99.90;;;;;;5097960;28;20139;-79
2021/05/16 12:07:32;;;;;;;11.77;1.35;;;16.90;99.90;;;;;;5097404;28;20074;-79
2021/05/16 12:09:59;;;;;;;0.85;0.38;;;17.40;99.90;;;;;;5078592;28;20075;-79
2021/05/16 12:12:27;;;;;;;0.20;0.20;;;17.70;99.90;;;;;;5079429;28;20489;-79
2021/05/16 12:14:56;;;;;;;1.75;0.20;;;18.00;99.90;;;;;;5097187;28;20048;-80
2021/05/16 12:17:33;;;;;;;2.50;0.10;;;18.10;99.90;;;;;;5097239;28;20078;-79
2021/05/16 12:20:00;;;;;;;0.82;0.63;;;17.50;99.90;;;;;;5097163;28;20450;-78
2021/05/16 12:22:39;;;;;;;0.50;0.50;;;17.50;99.90;;;;;;5096989;28;20048;-78
2021/05/16 12:25:07;;;;;;;0.60;0.60;;;17.80;99.90;;;;;;5096198;28;20072;-79
2021/05/16 12:27:34;;;;;;;0.40;0.30;;;18.10;99.90;;;;;;5096954;28;20052;-78
2021/05/16 12:30:04;;;;;;;1.90;0.40;;;18.10;99.90;;;;;;5078796;28;20107;-79
2021/05/16 12:32:32;;;;;;;0.63;0.32;;;17.90;99.90;;;;;;5078558;28;20127;-80
2021/05/16 12:34:59;;;;;;;0.68;0.30;;;17.60;99.90;;;;;;5096082;28;20048;-77
2021/05/16 12:37:28;;;;;;;7.15;1.92;;;17.10;99.90;;;;;;5096563;28;20130;-79
2021/05/16 12:39:57;;;;;;;0.85;0.20;;;16.80;99.90;;;;;;5095835;28;20177;-80
2021/05/16 12:42:33;;;;;;;2.50;0.30;;;16.60;99.90;;;;;;5077558;28;20080;-78
2021/05/16 12:45:19;;;;;;;2.35;0.22;;;16.80;99.90;;;;;;5077485;28;20161;-79
2021/05/16 12:48:24;;;;;;;1.33;0.63;;;16.90;99.90;;;;;;5078379;28;20466;-78
2021/05/16 12:50:56;;;;;;;0.43;0.20;;;17.00;99.90;;;;;;5095694;28;20056;-79
2021/05/16 12:53:29;;;;;;;0.95;0.20;;;17.30;99.90;;;;;;5095551;28;20119;-79
2021/05/16 12:56:16;;;;;;;0.43;0.43;;;17.50;99.90;;;;;;5077555;28;20104;-79
2021/05/16 12:58:57;;;;;;;0.17;0.13;;;17.60;99.90;;;;;;5095014;28;20465;-79
2021/05/16 13:01:25;;;;;;;1.42;0.55;;;17.80;99.90;;;;;;5077218;28;20044;-79
2021/05/16 13:03:57;;;;;;;1.90;0.28;;;17.80;99.90;;;;;;5076718;28;20048;-79
2021/05/16 13:06:29;;;;;;;0.63;0.28;;;18.00;99.90;;;;;;5094848;28;20079;-78